createdAt,value
2018-09-29T00:00:05.684Z,1024.7
2018-09-29T00:01:07.082Z,1024.7
2018-09-29T00:02:08.487Z,1024.7
2018-09-29T00:03:10.022Z,1024.8
2018-09-29T00:04:11.400Z,1024.8
2018-09-29T00:05:12.801Z,1024.8
2018-09-29T00:06:14.334Z,1024.9
2018-09-29T00:07:15.733Z,1024.9
2018-09-29T00:08:17.135Z,1024.9
2018-09-29T00:09:18.845Z,1024.9
2018-09-29T00:10:20.271Z,1024.9
2018-09-29T00:11:21.933Z,1024.9
2018-09-29T00:12:23.331Z,1024.9
2018-09-29T00:13:24.733Z,1024.9
2018-09-29T00:14:26.253Z,1024.9
2018-09-29T00:15:27.653Z,1024.9
2018-09-29T00:16:29.092Z,1025.0
2018-09-29T00:17:30.574Z,1025.0
2018-09-29T00:18:31.968Z,1024.9
2018-09-29T00:19:33.754Z,1024.9
2018-09-29T00:20:35.303Z,1024.9
2018-09-29T00:21:36.705Z,1024.8
2018-09-29T00:22:38.402Z,1024.8
2018-09-29T00:23:39.840Z,1024.8
2018-09-29T00:24:41.276Z,1024.9
2018-09-29T00:25:42.693Z,1024.9
2018-09-29T00:26:44.357Z,1024.8
2018-09-29T00:27:45.757Z,1024.9
2018-09-29T00:28:47.445Z,1024.8
2018-09-29T00:29:48.843Z,1024.9
2018-09-29T00:30:50.584Z,1024.9
2018-09-29T00:31:51.926Z,1024.9
2018-09-29T00:32:53.632Z,1024.9
2018-09-29T00:33:55.034Z,1024.9
2018-09-29T00:34:56.434Z,1024.9
2018-09-29T00:35:58.151Z,1024.9
2018-09-29T00:36:59.603Z,1024.9
2018-09-29T00:38:01.042Z,1024.9
2018-09-29T00:39:02.668Z,1024.9
2018-09-29T00:40:04.104Z,1024.9
2018-09-29T00:41:05.497Z,1024.9
2018-09-29T00:42:07.196Z,1024.9
2018-09-29T00:43:08.586Z,1024.9
2018-09-29T00:44:09.990Z,1024.9
2018-09-29T00:45:11.549Z,1024.9
2018-09-29T00:46:12.954Z,1024.8
2018-09-29T00:47:14.344Z,1024.8
2018-09-29T00:48:16.041Z,1024.8
2018-09-29T00:49:17.446Z,1024.8
2018-09-29T00:50:18.846Z,1024.8
2018-09-29T00:51:20.741Z,1024.8
2018-09-29T00:52:22.147Z,1024.7
2018-09-29T00:53:23.545Z,1024.8
2018-09-29T00:54:25.106Z,1024.7
2018-09-29T00:55:26.500Z,1024.7
2018-09-29T00:56:28.226Z,1024.8
2018-09-29T00:57:29.576Z,1024.7
2018-09-29T00:58:31.262Z,1024.7
2018-09-29T00:59:32.691Z,1024.8
2018-09-29T01:00:34.088Z,1024.7
2018-09-29T01:01:35.483Z,1024.8
2018-09-29T01:02:36.882Z,1024.8
2018-09-29T01:03:38.462Z,1024.7
2018-09-29T01:04:39.902Z,1024.8
2018-09-29T01:05:41.553Z,1024.8
2018-09-29T01:06:42.971Z,1024.8
2018-09-29T01:07:44.632Z,1024.8
2018-09-29T01:08:46.034Z,1024.7
2018-09-29T01:09:47.720Z,1024.7
2018-09-29T01:10:49.119Z,1024.7
2018-09-29T01:11:50.802Z,1024.7
2018-09-29T01:12:52.206Z,1024.7
2018-09-29T01:13:53.893Z,1024.7
2018-09-29T01:14:55.292Z,1024.8
2018-09-29T01:15:56.973Z,1024.8
2018-09-29T01:16:58.421Z,1024.8
2018-09-29T01:18:00.062Z,1024.7
2018-09-29T01:19:01.933Z,1024.7
2018-09-29T01:20:03.336Z,1024.7
2018-09-29T01:21:04.999Z,1024.6
2018-09-29T01:22:06.398Z,1024.7
2018-09-29T01:23:07.796Z,1024.7
2018-09-29T01:24:09.338Z,1024.7
2018-09-29T01:25:10.734Z,1024.7
2018-09-29T01:26:12.133Z,1024.6
2018-09-29T01:27:13.646Z,1024.6
2018-09-29T01:28:15.040Z,1024.6
2018-09-29T01:29:16.445Z,1024.6
2018-09-29T01:30:17.959Z,1024.6
2018-09-29T01:31:19.363Z,1024.6
2018-09-29T01:32:20.763Z,1024.6
2018-09-29T01:33:22.580Z,1024.7
2018-09-29T01:34:23.982Z,1024.6
2018-09-29T01:35:25.386Z,1024.6
2018-09-29T01:36:27.011Z,1024.6
2018-09-29T01:37:28.424Z,1024.7
2018-09-29T01:38:30.116Z,1024.6
2018-09-29T01:39:31.513Z,1024.6
2018-09-29T01:40:32.907Z,1024.6
2018-09-29T01:41:34.425Z,1024.6
2018-09-29T01:42:35.829Z,1024.6
2018-09-29T01:43:37.232Z,1024.7
2018-09-29T01:44:38.747Z,1024.7
2018-09-29T01:45:40.161Z,1024.7
2018-09-29T01:46:41.560Z,1024.8
2018-09-29T01:47:43.067Z,1024.7
2018-09-29T01:48:44.467Z,1024.7
2018-09-29T01:49:45.871Z,1024.7
2018-09-29T01:50:47.390Z,1024.7
2018-09-29T01:51:48.790Z,1024.7
2018-09-29T01:52:50.506Z,1024.8
2018-09-29T01:53:51.911Z,1024.7
2018-09-29T01:54:53.562Z,1024.8
2018-09-29T01:55:54.961Z,1024.8
2018-09-29T01:56:56.643Z,1024.8
2018-09-29T01:57:58.076Z,1024.7
2018-09-29T01:58:59.738Z,1024.8
2018-09-29T02:00:01.145Z,1024.7
2018-09-29T02:01:02.815Z,1024.7
2018-09-29T02:02:04.214Z,1024.7
2018-09-29T02:03:05.901Z,1024.7
2018-09-29T02:04:07.300Z,1024.7
2018-09-29T02:05:08.702Z,1024.7
2018-09-29T02:06:10.519Z,1024.7
2018-09-29T02:07:11.939Z,1024.7
2018-09-29T02:08:13.347Z,1024.6
2018-09-29T02:09:14.956Z,1024.7
2018-09-29T02:10:16.383Z,1024.7
2018-09-29T02:11:17.782Z,1024.7
2018-09-29T02:12:19.505Z,1024.7
2018-09-29T02:13:20.902Z,1024.7
2018-09-29T02:14:22.566Z,1024.7
2018-09-29T02:15:23.964Z,1024.7
2018-09-29T02:16:25.367Z,1024.7
2018-09-29T02:17:26.884Z,1024.7
2018-09-29T02:18:28.288Z,1024.7
2018-09-29T02:19:29.681Z,1024.6
2018-09-29T02:20:31.208Z,1024.7
2018-09-29T02:21:32.605Z,1024.6
2018-09-29T02:22:34.295Z,1024.7
2018-09-29T02:23:35.704Z,1024.7
2018-09-29T02:24:37.401Z,1024.7
2018-09-29T02:25:38.811Z,1024.7
2018-09-29T02:26:40.212Z,1024.7
2018-09-29T02:27:41.907Z,1024.7
2018-09-29T02:28:43.696Z,1024.7
2018-09-29T02:29:45.090Z,1024.6
2018-09-29T02:30:46.636Z,1024.6
2018-09-29T02:31:48.034Z,1024.6
2018-09-29T02:32:49.722Z,1024.6
2018-09-29T02:33:51.125Z,1024.6
2018-09-29T02:34:52.525Z,1024.7
2018-09-29T02:35:54.053Z,1024.7
2018-09-29T02:36:55.448Z,1024.7
2018-09-29T02:37:56.845Z,1024.7
2018-09-29T02:38:58.364Z,1024.6
2018-09-29T02:39:59.765Z,1024.6
2018-09-29T02:41:01.162Z,1024.6
2018-09-29T02:42:02.686Z,1024.6
2018-09-29T02:43:04.098Z,1024.6
2018-09-29T02:44:05.764Z,1024.5
2018-09-29T02:45:07.183Z,1024.6
2018-09-29T02:46:08.581Z,1024.5
2018-09-29T02:47:10.482Z,1024.6
2018-09-29T02:48:11.876Z,1024.6
2018-09-29T02:49:13.281Z,1024.6
2018-09-29T02:50:14.832Z,1024.6
2018-09-29T02:51:16.230Z,1024.6
2018-09-29T02:52:17.630Z,1024.6
2018-09-29T02:53:19.145Z,1024.6
2018-09-29T02:54:20.543Z,1024.6
2018-09-29T02:55:21.946Z,1024.6
2018-09-29T02:56:23.466Z,1024.6
2018-09-29T02:57:24.862Z,1024.6
2018-09-29T02:58:26.931Z,1024.5
2018-09-29T02:59:28.359Z,1024.6
2018-09-29T03:00:29.768Z,1024.6
2018-09-29T03:01:31.295Z,1024.6
2018-09-29T03:02:32.680Z,1024.6
2018-09-29T03:03:34.136Z,1024.6
2018-09-29T03:04:35.854Z,1024.6
2018-09-29T03:05:37.305Z,1024.6
2018-09-29T03:06:38.731Z,1024.5
2018-09-29T03:07:40.336Z,1024.5
2018-09-29T03:08:41.739Z,1024.5
2018-09-29T03:09:43.134Z,1024.5
2018-09-29T03:10:44.657Z,1024.5
2018-09-29T03:11:46.095Z,1024.5
2018-09-29T03:12:47.743Z,1024.5
2018-09-29T03:13:49.143Z,1024.5
2018-09-29T03:14:50.826Z,1024.4
2018-09-29T03:15:52.234Z,1024.4
2018-09-29T03:16:53.914Z,1024.4
2018-09-29T03:17:55.314Z,1024.4
2018-09-29T03:18:57.011Z,1024.4
2018-09-29T03:19:58.402Z,1024.4
2018-09-29T03:20:59.800Z,1024.5
2018-09-29T03:22:01.330Z,1024.5
2018-09-29T03:23:02.756Z,1024.5
2018-09-29T03:24:04.143Z,1024.5
2018-09-29T03:25:05.653Z,1024.4
2018-09-29T03:26:07.073Z,1024.5
2018-09-29T03:27:08.471Z,1024.5
2018-09-29T03:28:09.969Z,1024.5
2018-09-29T03:29:11.378Z,1024.5
2018-09-29T03:30:12.773Z,1024.5
2018-09-29T03:31:14.285Z,1024.4
2018-09-29T03:32:15.697Z,1024.4
2018-09-29T03:33:17.164Z,1024.4
2018-09-29T03:34:18.811Z,1024.4
2018-09-29T03:35:20.248Z,1024.4
2018-09-29T03:36:21.646Z,1024.4
2018-09-29T03:37:23.345Z,1024.4
2018-09-29T03:38:24.745Z,1024.4
2018-09-29T03:39:26.142Z,1024.4
2018-09-29T03:40:27.689Z,1024.4
2018-09-29T03:41:29.094Z,1024.4
2018-09-29T03:42:30.774Z,1024.4
2018-09-29T03:43:32.170Z,1024.3
2018-09-29T03:44:33.833Z,1024.4
2018-09-29T03:45:35.225Z,1024.2
2018-09-29T03:46:36.916Z,1024.3
2018-09-29T03:47:38.364Z,1024.3
2018-09-29T03:48:40.002Z,1024.3
2018-09-29T03:49:41.400Z,1024.3
2018-09-29T03:50:43.085Z,1024.3
2018-09-29T03:51:44.867Z,1024.3
2018-09-29T03:52:46.298Z,1024.2
2018-09-29T03:53:47.817Z,1024.2
2018-09-29T03:54:49.239Z,1024.2
2018-09-29T03:55:50.654Z,1024.3
2018-09-29T03:56:52.144Z,1024.3
2018-09-29T03:57:53.543Z,1024.3
2018-09-29T03:58:54.938Z,1024.2
2018-09-29T03:59:56.472Z,1024.2
2018-09-29T04:00:57.870Z,1024.2
2018-09-29T04:01:59.285Z,1024.2
2018-09-29T04:03:00.779Z,1024.3
2018-09-29T04:04:02.181Z,1024.2
2018-09-29T04:05:03.581Z,1024.3
2018-09-29T04:06:05.483Z,1024.3
2018-09-29T04:07:06.912Z,1024.2
2018-09-29T04:08:08.597Z,1024.3
2018-09-29T04:09:09.996Z,1024.3
2018-09-29T04:10:11.681Z,1024.3
2018-09-29T04:11:13.098Z,1024.2
2018-09-29T04:12:14.482Z,1024.3
2018-09-29T04:13:16.005Z,1024.3
2018-09-29T04:14:17.421Z,1024.3
2018-09-29T04:15:18.809Z,1024.3
2018-09-29T04:16:20.328Z,1024.3
2018-09-29T04:17:21.720Z,1024.3
2018-09-29T04:18:23.414Z,1024.4
2018-09-29T04:19:24.812Z,1024.3
2018-09-29T04:20:26.495Z,1024.3
2018-09-29T04:21:28.281Z,1024.4
2018-09-29T04:22:29.785Z,1024.3
2018-09-29T04:23:31.194Z,1024.3
2018-09-29T04:24:32.664Z,1024.3
2018-09-29T04:25:34.068Z,1024.4
2018-09-29T04:26:35.806Z,1024.4
2018-09-29T04:27:37.205Z,1024.4
2018-09-29T04:28:38.644Z,1024.4
2018-09-29T04:29:40.282Z,1024.4
2018-09-29T04:30:41.735Z,1024.4
2018-09-29T04:31:43.133Z,1024.4
2018-09-29T04:32:44.985Z,1024.5
2018-09-29T04:33:46.389Z,1024.4
2018-09-29T04:34:47.789Z,1024.4
2018-09-29T04:35:49.343Z,1024.4
2018-09-29T04:36:50.738Z,1024.4
2018-09-29T04:37:52.141Z,1024.5
2018-09-29T04:38:53.652Z,1024.4
2018-09-29T04:39:55.049Z,1024.4
2018-09-29T04:40:56.498Z,1024.5
2018-09-29T04:41:58.180Z,1024.5
2018-09-29T04:42:59.632Z,1024.5
2018-09-29T04:44:01.271Z,1024.5
2018-09-29T04:45:02.668Z,1024.5
2018-09-29T04:46:04.149Z,1024.6
2018-09-29T04:47:05.545Z,1024.6
2018-09-29T04:48:06.965Z,1024.6
2018-09-29T04:49:08.516Z,1024.6
2018-09-29T04:50:09.934Z,1024.7
2018-09-29T04:51:11.333Z,1024.7
2018-09-29T04:52:12.998Z,1024.7
2018-09-29T04:53:14.422Z,1024.6
2018-09-29T04:54:16.194Z,1024.7
2018-09-29T04:55:17.751Z,1024.6
2018-09-29T04:56:19.154Z,1024.6
2018-09-29T04:57:20.549Z,1024.7
2018-09-29T04:58:22.049Z,1024.6
2018-09-29T04:59:23.447Z,1024.7
2018-09-29T05:00:24.849Z,1024.7
2018-09-29T05:01:26.370Z,1024.7
2018-09-29T05:02:27.810Z,1024.7
2018-09-29T05:03:29.171Z,1024.7
2018-09-29T05:04:30.711Z,1024.7
2018-09-29T05:05:32.106Z,1024.6
2018-09-29T05:06:33.560Z,1024.7
2018-09-29T05:07:35.043Z,1024.6
2018-09-29T05:08:36.439Z,1024.7
2018-09-29T05:09:37.969Z,1024.7
2018-09-29T05:10:39.338Z,1024.7
2018-09-29T05:11:40.734Z,1024.7
2018-09-29T05:12:42.137Z,1024.7
2018-09-29T05:13:43.655Z,1024.7
2018-09-29T05:14:45.070Z,1024.7
2018-09-29T05:15:46.461Z,1024.7
2018-09-29T05:16:48.018Z,1024.7
2018-09-29T05:17:49.409Z,1024.7
2018-09-29T05:18:51.059Z,1024.7
2018-09-29T05:19:52.458Z,1024.8
2018-09-29T05:20:53.950Z,1024.7
2018-09-29T05:21:55.347Z,1024.7
2018-09-29T05:22:57.026Z,1024.7
2018-09-29T05:23:58.451Z,1024.6
2018-09-29T05:25:00.112Z,1024.6
2018-09-29T05:26:01.507Z,1024.6
2018-09-29T05:27:02.991Z,1024.7
2018-09-29T05:28:04.390Z,1024.6
2018-09-29T05:29:06.136Z,1024.6
2018-09-29T05:30:07.535Z,1024.7
2018-09-29T05:31:09.164Z,1024.7
2018-09-29T05:32:10.564Z,1024.7
2018-09-29T05:33:12.051Z,1024.7
2018-09-29T05:34:13.445Z,1024.7
2018-09-29T05:35:14.933Z,1024.7
2018-09-29T05:36:16.647Z,1024.6
2018-09-29T05:37:18.218Z,1024.6
2018-09-29T05:38:19.641Z,1024.6
2018-09-29T05:39:21.030Z,1024.6
2018-09-29T05:40:22.544Z,1024.6
2018-09-29T05:41:23.935Z,1024.6
2018-09-29T05:42:25.348Z,1024.6
2018-09-29T05:43:26.877Z,1024.5
2018-09-29T05:44:28.275Z,1024.6
2018-09-29T05:45:29.966Z,1024.6
2018-09-29T05:46:31.363Z,1024.5
2018-09-29T05:47:32.764Z,1024.6
2018-09-29T05:48:34.281Z,1024.6
2018-09-29T05:49:35.673Z,1024.6
2018-09-29T05:50:37.078Z,1024.5
2018-09-29T05:51:38.599Z,1024.7
2018-09-29T05:52:39.994Z,1024.6
2018-09-29T05:53:41.399Z,1024.7
2018-09-29T05:54:42.914Z,1024.7
2018-09-29T05:55:44.310Z,1024.7
2018-09-29T05:56:45.714Z,1024.7
2018-09-29T05:57:47.297Z,1024.7
2018-09-29T05:58:48.692Z,1024.8
2018-09-29T05:59:50.319Z,1024.6
2018-09-29T06:00:51.718Z,1024.7
2018-09-29T06:01:53.203Z,1024.7
2018-09-29T06:02:54.614Z,1024.7
2018-09-29T06:03:56.081Z,1024.8
2018-09-29T06:04:57.518Z,1024.7
2018-09-29T06:05:59.168Z,1024.8
2018-09-29T06:07:00.646Z,1024.8
2018-09-29T06:08:02.257Z,1024.9
2018-09-29T06:09:03.668Z,1024.9
2018-09-29T06:10:05.144Z,1024.9
2018-09-29T06:11:06.531Z,1024.9
2018-09-29T06:12:08.014Z,1024.9
2018-09-29T06:13:09.438Z,1024.8
2018-09-29T06:14:10.820Z,1025.0
2018-09-29T06:15:12.336Z,1024.8
2018-09-29T06:16:13.735Z,1024.9
2018-09-29T06:17:15.139Z,1024.8
2018-09-29T06:18:16.659Z,1024.8
2018-09-29T06:19:18.055Z,1024.8
2018-09-29T06:20:19.749Z,1024.9
2018-09-29T06:21:21.147Z,1024.9
2018-09-29T06:22:22.844Z,1024.9
2018-09-29T06:23:24.226Z,1024.9
2018-09-29T06:24:25.629Z,1024.9
2018-09-29T06:25:27.150Z,1025.0
2018-09-29T06:26:28.570Z,1025.0
2018-09-29T06:27:29.978Z,1024.9
2018-09-29T06:28:31.473Z,1024.9
2018-09-29T06:29:32.880Z,1024.9
2018-09-29T06:30:34.556Z,1025.0
2018-09-29T06:31:35.984Z,1025.0
2018-09-29T06:32:37.643Z,1025.0
2018-09-29T06:33:39.071Z,1025.0
2018-09-29T06:34:40.471Z,1025.0
2018-09-29T06:35:42.991Z,1025.0
2018-09-29T06:36:44.402Z,1025.0
2018-09-29T06:37:45.806Z,1025.0
2018-09-29T06:38:47.313Z,1025.0
2018-09-29T06:39:48.717Z,1025.0
2018-09-29T06:40:50.451Z,1024.9
2018-09-29T06:41:51.832Z,1024.9
2018-09-29T06:42:53.481Z,1024.9
2018-09-29T06:43:54.919Z,1024.9
2018-09-29T06:44:56.321Z,1024.9
2018-09-29T06:45:57.841Z,1024.9
2018-09-29T06:46:59.241Z,1024.8
2018-09-29T06:48:00.692Z,1024.9
2018-09-29T06:49:02.031Z,1024.9
2018-09-29T06:50:03.498Z,1024.9
2018-09-29T06:51:04.931Z,1024.9
2018-09-29T06:52:06.443Z,1024.9
2018-09-29T06:53:07.885Z,1024.9
2018-09-29T06:54:09.292Z,1024.9
2018-09-29T06:55:10.804Z,1024.9
2018-09-29T06:56:12.207Z,1024.9
2018-09-29T06:57:13.612Z,1024.9
2018-09-29T06:58:15.348Z,1024.9
2018-09-29T06:59:16.749Z,1024.9
2018-09-29T07:00:18.161Z,1025.0
2018-09-29T07:01:19.821Z,1025.0
2018-09-29T07:02:21.218Z,1025.0
2018-09-29T07:03:22.625Z,1025.0
2018-09-29T07:04:24.158Z,1025.0
2018-09-29T07:05:25.561Z,1025.0
2018-09-29T07:06:26.952Z,1025.0
2018-09-29T07:07:28.461Z,1025.0
2018-09-29T07:08:29.875Z,1025.0
2018-09-29T07:09:31.279Z,1025.1
2018-09-29T07:10:32.781Z,1025.1
2018-09-29T07:11:34.181Z,1025.0
2018-09-29T07:12:35.591Z,1025.0
2018-09-29T07:13:37.102Z,1025.1
2018-09-29T07:14:38.495Z,1025.0
2018-09-29T07:15:39.991Z,1025.0
2018-09-29T07:16:41.393Z,1025.0
2018-09-29T07:17:43.068Z,1025.0
2018-09-29T07:18:44.470Z,1025.0
2018-09-29T07:19:46.154Z,1025.1
2018-09-29T07:20:47.555Z,1025.0
2018-09-29T07:21:49.107Z,1025.0
2018-09-29T07:22:50.450Z,1025.0
2018-09-29T07:23:51.852Z,1025.1
2018-09-29T07:24:53.356Z,1025.1
2018-09-29T07:25:54.757Z,1025.1
2018-09-29T07:26:56.164Z,1025.1
2018-09-29T07:27:57.678Z,1025.1
2018-09-29T07:28:59.077Z,1025.0
2018-09-29T07:30:00.479Z,1025.1
2018-09-29T07:31:02.000Z,1025.1
2018-09-29T07:32:03.409Z,1025.0
2018-09-29T07:33:04.813Z,1025.1
2018-09-29T07:34:06.321Z,1025.1
2018-09-29T07:35:07.723Z,1025.1
2018-09-29T07:36:09.123Z,1025.1
2018-09-29T07:37:10.644Z,1025.1
2018-09-29T07:38:12.048Z,1025.1
2018-09-29T07:39:13.455Z,1025.1
2018-09-29T07:40:14.963Z,1025.1
2018-09-29T07:41:16.375Z,1025.2
2018-09-29T07:42:17.771Z,1025.1
2018-09-29T07:43:19.282Z,1025.1
2018-09-29T07:44:20.686Z,1025.1
2018-09-29T07:45:22.093Z,1025.1
2018-09-29T07:46:23.544Z,1025.2
2018-09-29T07:47:24.951Z,1025.1
2018-09-29T07:48:26.350Z,1025.1
2018-09-29T07:49:27.868Z,1025.2
2018-09-29T07:50:29.268Z,1025.2
2018-09-29T07:51:30.665Z,1025.2
2018-09-29T07:52:32.187Z,1025.2
2018-09-29T07:53:33.599Z,1025.2
2018-09-29T07:54:35.000Z,1025.1
2018-09-29T07:55:36.403Z,1025.1
2018-09-29T07:56:37.949Z,1025.1
2018-09-29T07:57:39.373Z,1025.1
2018-09-29T07:58:40.826Z,1025.1
2018-09-29T07:59:42.231Z,1025.2
2018-09-29T08:00:43.640Z,1025.2
2018-09-29T08:01:45.150Z,1025.1
2018-09-29T08:02:46.553Z,1025.1
2018-09-29T08:03:47.954Z,1025.0
2018-09-29T08:04:49.477Z,1025.1
2018-09-29T08:05:50.873Z,1025.0
2018-09-29T08:06:52.282Z,1025.1
2018-09-29T08:07:53.797Z,1025.0
2018-09-29T08:08:55.200Z,1025.0
2018-09-29T08:09:56.602Z,1025.1
2018-09-29T08:10:58.117Z,1025.1
2018-09-29T08:11:59.521Z,1025.1
2018-09-29T08:13:00.916Z,1025.1
2018-09-29T08:14:02.440Z,1025.1
2018-09-29T08:15:03.843Z,1025.1
2018-09-29T08:16:05.249Z,1025.0
2018-09-29T08:17:06.761Z,1025.0
2018-09-29T08:18:08.164Z,1025.0
2018-09-29T08:19:09.582Z,1025.0
2018-09-29T08:20:11.082Z,1025.0
2018-09-29T08:21:12.490Z,1025.0
2018-09-29T08:22:13.895Z,1025.0
2018-09-29T08:23:15.405Z,1025.0
2018-09-29T08:24:16.865Z,1025.0
2018-09-29T08:25:18.216Z,1025.1
2018-09-29T08:26:19.727Z,1025.1
2018-09-29T08:27:21.131Z,1025.1
2018-09-29T08:28:22.604Z,1025.1
2018-09-29T08:29:24.012Z,1025.1
2018-09-29T08:30:25.414Z,1025.2
2018-09-29T08:31:26.927Z,1025.1
2018-09-29T08:32:28.414Z,1025.2
2018-09-29T08:33:29.721Z,1025.2
2018-09-29T08:34:31.248Z,1025.1
2018-09-29T08:35:32.652Z,1025.2
2018-09-29T08:36:34.129Z,1025.2
2018-09-29T08:37:35.582Z,1025.2
2018-09-29T08:38:37.071Z,1025.1
2018-09-29T08:39:38.464Z,1025.2
2018-09-29T08:40:39.888Z,1025.2
2018-09-29T08:41:41.397Z,1025.2
2018-09-29T08:42:42.816Z,1025.2
2018-09-29T08:43:44.220Z,1025.3
2018-09-29T08:44:45.713Z,1025.2
2018-09-29T08:45:47.117Z,1025.3
2018-09-29T08:46:48.649Z,1025.2
2018-09-29T08:47:49.999Z,1025.2
2018-09-29T08:48:51.417Z,1025.2
2018-09-29T08:49:52.821Z,1025.2
2018-09-29T08:50:54.297Z,1025.2
2018-09-29T08:51:55.710Z,1025.2
2018-09-29T08:52:57.187Z,1025.2
2018-09-29T08:53:58.593Z,1025.1
2018-09-29T08:55:00.060Z,1025.1
2018-09-29T08:56:01.471Z,1025.1
2018-09-29T08:57:02.944Z,1025.1
2018-09-29T08:58:04.355Z,1025.2
2018-09-29T08:59:05.823Z,1025.1
2018-09-29T09:00:07.243Z,1025.1
2018-09-29T09:01:08.660Z,1025.1
2018-09-29T09:02:10.144Z,1025.0
2018-09-29T09:03:11.549Z,1025.0
2018-09-29T09:04:12.966Z,1025.0
2018-09-29T09:05:14.471Z,1025.1
2018-09-29T09:06:15.870Z,1025.0
2018-09-29T09:07:17.344Z,1025.0
2018-09-29T09:08:18.751Z,1025.0
2018-09-29T09:09:20.259Z,1025.0
2018-09-29T09:10:21.647Z,1025.0
2018-09-29T09:11:23.155Z,1025.0
2018-09-29T09:12:24.570Z,1025.0
2018-09-29T09:13:26.248Z,1025.0
2018-09-29T09:14:27.657Z,1025.0
2018-09-29T09:15:29.063Z,1025.0
2018-09-29T09:16:30.525Z,1025.0
2018-09-29T09:17:31.925Z,1025.0
2018-09-29T09:18:33.364Z,1025.0
2018-09-29T09:19:34.836Z,1025.0
2018-09-29T09:20:36.260Z,1024.9
2018-09-29T09:21:37.653Z,1024.9
2018-09-29T09:22:39.204Z,1024.9
2018-09-29T09:23:40.639Z,1024.9
2018-09-29T09:24:42.042Z,1024.9
2018-09-29T09:25:43.473Z,1024.9
2018-09-29T09:26:44.906Z,1024.8
2018-09-29T09:27:46.391Z,1024.9
2018-09-29T09:28:47.813Z,1024.8
2018-09-29T09:29:49.225Z,1024.8
2018-09-29T09:30:50.681Z,1024.8
2018-09-29T09:31:52.085Z,1024.8
2018-09-29T09:32:53.561Z,1024.8
2018-09-29T09:33:54.973Z,1024.7
2018-09-29T09:34:56.479Z,1024.7
2018-09-29T09:35:57.888Z,1024.8
2018-09-29T09:36:59.381Z,1024.7
2018-09-29T09:38:00.803Z,1024.8
2018-09-29T09:39:02.408Z,1024.8
2018-09-29T09:40:03.826Z,1024.7
2018-09-29T09:41:05.293Z,1024.7
2018-09-29T09:42:06.697Z,1024.7
2018-09-29T09:43:08.173Z,1024.7
2018-09-29T09:44:09.585Z,1024.7
2018-09-29T09:45:11.094Z,1024.7
2018-09-29T09:46:12.498Z,1024.6
2018-09-29T09:47:13.916Z,1024.7
2018-09-29T09:48:15.377Z,1024.7
2018-09-29T09:49:16.809Z,1024.6
2018-09-29T09:50:18.196Z,1024.7
2018-09-29T09:51:19.698Z,1024.6
2018-09-29T09:52:21.102Z,1024.6
2018-09-29T09:53:22.582Z,1024.7
2018-09-29T09:54:23.984Z,1024.6
2018-09-29T09:55:25.460Z,1024.6
2018-09-29T09:56:26.866Z,1024.6
2018-09-29T09:57:28.340Z,1024.6
2018-09-29T09:58:29.748Z,1024.5
2018-09-29T09:59:31.221Z,1024.6
2018-09-29T10:00:32.642Z,1024.5
2018-09-29T10:01:34.106Z,1024.5
2018-09-29T10:02:35.518Z,1024.6
2018-09-29T10:03:37.035Z,1024.5
2018-09-29T10:04:38.444Z,1024.5
2018-09-29T10:05:39.916Z,1024.5
2018-09-29T10:06:41.322Z,1024.5
2018-09-29T10:07:42.796Z,1024.6
2018-09-29T10:08:44.200Z,1024.6
2018-09-29T10:09:45.675Z,1024.5
2018-09-29T10:10:47.080Z,1024.6
2018-09-29T10:11:48.577Z,1024.5
2018-09-29T10:12:50.202Z,1024.5
2018-09-29T10:13:51.604Z,1024.4
2018-09-29T10:14:53.015Z,1024.5
2018-09-29T10:15:54.600Z,1024.4
2018-09-29T10:16:56.005Z,1024.4
2018-09-29T10:17:57.607Z,1024.4
2018-09-29T10:18:59.066Z,1024.4
2018-09-29T10:20:00.651Z,1024.4
2018-09-29T10:21:02.055Z,1024.3
2018-09-29T10:22:03.459Z,1024.4
2018-09-29T10:23:05.014Z,1024.3
2018-09-29T10:24:06.447Z,1024.3
2018-09-29T10:25:07.858Z,1024.3
2018-09-29T10:26:09.371Z,1024.2
2018-09-29T10:27:10.770Z,1024.2
2018-09-29T10:28:12.422Z,1024.2
2018-09-29T10:29:13.829Z,1024.2
2018-09-29T10:30:15.303Z,1024.2
2018-09-29T10:31:16.705Z,1024.2
2018-09-29T10:32:18.112Z,1024.2
2018-09-29T10:33:19.624Z,1024.2
2018-09-29T10:34:21.030Z,1024.2
2018-09-29T10:35:22.430Z,1024.2
2018-09-29T10:36:23.964Z,1024.1
2018-09-29T10:37:25.311Z,1024.1
2018-09-29T10:38:27.094Z,1024.1
2018-09-29T10:39:28.676Z,1024.1
2018-09-29T10:40:30.081Z,1024.1
2018-09-29T10:41:31.485Z,1024.1
2018-09-29T10:42:32.998Z,1024.1
2018-09-29T10:43:34.403Z,1024.1
2018-09-29T10:44:35.878Z,1024.1
2018-09-29T10:45:37.283Z,1024.0
2018-09-29T10:46:38.690Z,1024.0
2018-09-29T10:47:40.199Z,1024.0
2018-09-29T10:48:41.605Z,1024.0
2018-09-29T10:49:43.005Z,1024.0
2018-09-29T10:50:44.588Z,1024.1
2018-09-29T10:51:45.989Z,1024.0
2018-09-29T10:52:47.398Z,1023.9
2018-09-29T10:53:49.252Z,1024.0
2018-09-29T10:54:50.655Z,1024.0
2018-09-29T10:55:52.136Z,1024.0
2018-09-29T10:56:53.538Z,1024.0
2018-09-29T10:57:55.016Z,1023.9
2018-09-29T10:58:56.422Z,1023.9
2018-09-29T10:59:57.895Z,1023.8
2018-09-29T11:00:59.302Z,1023.9
2018-09-29T11:02:00.773Z,1023.9
2018-09-29T11:03:02.179Z,1023.9
2018-09-29T11:04:03.655Z,1023.9
2018-09-29T11:05:05.143Z,1023.9
2018-09-29T11:06:06.538Z,1023.8
2018-09-29T11:07:07.944Z,1023.8
2018-09-29T11:08:09.416Z,1023.9
2018-09-29T11:09:10.824Z,1023.9
2018-09-29T11:10:12.314Z,1023.8
2018-09-29T11:11:13.720Z,1023.8
2018-09-29T11:12:15.387Z,1023.8
2018-09-29T11:13:16.789Z,1023.7
2018-09-29T11:14:18.268Z,1023.8
2018-09-29T11:15:19.670Z,1023.7
2018-09-29T11:16:21.146Z,1023.8
2018-09-29T11:17:22.555Z,1023.7
2018-09-29T11:18:23.964Z,1023.6
2018-09-29T11:19:25.469Z,1023.7
2018-09-29T11:20:26.873Z,1023.5
2018-09-29T11:21:28.281Z,1023.6
2018-09-29T11:22:29.787Z,1023.6
2018-09-29T11:23:31.197Z,1023.6
2018-09-29T11:24:32.667Z,1023.6
2018-09-29T11:25:34.076Z,1023.5
2018-09-29T11:26:35.550Z,1023.6
2018-09-29T11:27:36.984Z,1023.6
2018-09-29T11:28:38.359Z,1023.6
2018-09-29T11:29:39.872Z,1023.5
2018-09-29T11:30:41.280Z,1023.6
2018-09-29T11:31:42.678Z,1023.5
2018-09-29T11:32:44.193Z,1023.5
2018-09-29T11:33:45.599Z,1023.4
2018-09-29T11:34:47.073Z,1023.4
2018-09-29T11:35:48.478Z,1023.4
2018-09-29T11:36:49.885Z,1023.4
2018-09-29T11:37:51.395Z,1023.3
2018-09-29T11:38:52.797Z,1023.3
2018-09-29T11:39:54.203Z,1023.4
2018-09-29T11:40:55.721Z,1023.2
2018-09-29T11:41:57.122Z,1023.3
2018-09-29T11:42:58.529Z,1023.3
2018-09-29T11:44:00.038Z,1023.2
2018-09-29T11:45:01.444Z,1023.2
2018-09-29T11:46:02.918Z,1023.2
2018-09-29T11:47:04.329Z,1023.2
2018-09-29T11:48:05.822Z,1023.1
2018-09-29T11:49:07.295Z,1023.1
2018-09-29T11:50:08.885Z,1023.0
2018-09-29T11:51:10.298Z,1023.1
2018-09-29T11:52:11.766Z,1023.0
2018-09-29T11:53:13.165Z,1023.0
2018-09-29T11:54:14.568Z,1023.0
2018-09-29T11:55:16.095Z,1023.0
2018-09-29T11:56:17.533Z,1022.9
2018-09-29T11:57:18.918Z,1022.9
2018-09-29T11:58:20.695Z,1022.9
2018-09-29T11:59:22.107Z,1022.9
2018-09-29T12:00:23.654Z,1022.9
2018-09-29T12:01:25.650Z,1022.9
2018-09-29T12:02:27.054Z,1022.8
2018-09-29T12:03:33.664Z,1022.8
2018-09-29T12:04:35.194Z,1022.8
2018-09-29T12:05:36.606Z,1022.7
2018-09-29T12:06:38.078Z,1022.7
2018-09-29T12:07:39.595Z,1022.7
2018-09-29T12:08:41.161Z,1022.7
2018-09-29T12:09:42.637Z,1022.7
2018-09-29T12:10:44.248Z,1022.7
2018-09-29T12:11:45.655Z,1022.7
2018-09-29T12:12:47.145Z,1022.7
2018-09-29T12:13:48.608Z,1022.7
2018-09-29T12:14:50.213Z,1022.8
2018-09-29T12:15:51.654Z,1022.7
2018-09-29T12:16:53.673Z,1022.6
2018-09-29T12:17:55.097Z,1022.7
2018-09-29T12:18:56.487Z,1022.6
2018-09-29T12:19:58.033Z,1022.6
2018-09-29T12:20:59.444Z,1022.6
2018-09-29T12:22:00.841Z,1022.6
2018-09-29T12:23:02.357Z,1022.5
2018-09-29T12:24:03.762Z,1022.5
2018-09-29T12:25:05.233Z,1022.4
2018-09-29T12:26:06.638Z,1022.5
2018-09-29T12:27:08.114Z,1022.5
2018-09-29T12:28:09.520Z,1022.4
2018-09-29T12:29:10.993Z,1022.4
2018-09-29T12:30:12.396Z,1022.3
2018-09-29T12:31:13.979Z,1022.3
2018-09-29T12:32:15.385Z,1022.3
2018-09-29T12:33:16.959Z,1022.3
2018-09-29T12:34:18.369Z,1022.3
2018-09-29T12:35:19.842Z,1022.3
2018-09-29T12:36:21.249Z,1022.2
2018-09-29T12:37:22.740Z,1022.2
2018-09-29T12:38:24.128Z,1022.3
2018-09-29T12:39:25.532Z,1022.3
2018-09-29T12:40:27.045Z,1022.3
2018-09-29T12:41:28.451Z,1022.2
2018-09-29T12:42:29.854Z,1022.2
2018-09-29T12:43:31.366Z,1022.2
2018-09-29T12:44:32.801Z,1022.1
2018-09-29T12:45:34.172Z,1022.1
2018-09-29T12:46:35.688Z,1022.1